createdAt,value
2019-04-25T00:01:14.145Z,95606.05
2019-04-25T00:03:43.682Z,95600.55
2019-04-25T00:06:13.325Z,95582.09
2019-04-25T00:08:43.070Z,95571.41
2019-04-25T00:11:12.392Z,95576.09
2019-04-25T00:13:41.901Z,95571.14
2019-04-25T00:16:11.672Z,95565.05
2019-04-25T00:18:41.624Z,95542.79
2019-04-25T00:21:12.228Z,95545.55
2019-04-25T00:23:42.971Z,95512.67
2019-04-25T00:26:22.540Z,95558.63
2019-04-25T00:28:52.411Z,95565.19
2019-04-25T00:31:22.059Z,95564.37
2019-04-25T00:33:52.496Z,95566.28
2019-04-25T00:36:21.833Z,95556.14
2019-04-25T00:38:52.004Z,95569.48
2019-04-25T00:41:21.376Z,95568.40
2019-04-25T00:43:51.712Z,95576.02
2019-04-25T00:46:20.430Z,95570.34
2019-04-25T00:48:49.802Z,95560.73
2019-04-25T00:51:18.625Z,95573.27
2019-04-25T00:53:47.127Z,95584.38
2019-04-25T00:56:15.638Z,95598.27
2019-04-25T00:58:52.900Z,95602.70
2019-04-25T01:01:35.348Z,95606.36
2019-04-25T01:04:03.901Z,95599.06
2019-04-25T01:06:32.668Z,95621.88
2019-04-25T01:09:01.601Z,95599.50
2019-04-25T01:11:31.405Z,95608.55
2019-04-25T01:13:59.969Z,95600.42
2019-04-25T01:16:28.484Z,95575.88
2019-04-25T01:18:56.992Z,95589.56
2019-04-25T01:21:25.563Z,95577.23
2019-04-25T01:23:54.530Z,95587.25
2019-04-25T01:26:23.966Z,95584.86
2019-04-25T01:28:54.074Z,95561.44
2019-04-25T01:31:24.907Z,95584.57
2019-04-25T01:33:54.606Z,95601.26
2019-04-25T01:36:31.141Z,95608.08
2019-04-25T01:39:16.368Z,95609.73
2019-04-25T01:41:54.929Z,95603.16
2019-04-25T01:44:24.473Z,95595.50
2019-04-25T01:46:54.485Z,95607.27
2019-04-25T01:49:23.910Z,95596.66
2019-04-25T01:51:54.437Z,95625.58
2019-04-25T01:54:23.804Z,95624.22
2019-04-25T01:56:54.657Z,95622.30
2019-04-25T01:59:23.768Z,95640.25
2019-04-25T02:01:54.343Z,95629.33
2019-04-25T02:04:23.226Z,95645.15
2019-04-25T02:06:53.674Z,95622.09
2019-04-25T02:09:23.569Z,95640.02
2019-04-25T02:12:04.810Z,95615.79
2019-04-25T02:14:33.718Z,95643.30
2019-04-25T02:17:04.340Z,95634.63
2019-04-25T02:19:33.926Z,95651.52
2019-04-25T02:22:04.004Z,95668.50
2019-04-25T02:24:33.852Z,95660.34
2019-04-25T02:27:04.571Z,95654.62
2019-04-25T02:29:33.302Z,95663.89
2019-04-25T02:32:07.882Z,95654.20
2019-04-25T02:34:34.624Z,95668.30
2019-04-25T02:37:08.371Z,95663.44
2019-04-25T02:39:34.809Z,95674.13
2019-04-25T02:42:06.853Z,95659.20
2019-04-25T02:44:35.598Z,95662.42
2019-04-25T02:47:14.903Z,95638.12
2019-04-25T02:49:48.052Z,95652.00
2019-04-25T02:52:20.939Z,95650.94
2019-04-25T02:54:49.447Z,95642.30
2019-04-25T02:57:18.046Z,95628.10
2019-04-25T02:59:46.530Z,95640.36
2019-04-25T03:02:15.722Z,95628.09
2019-04-25T03:04:44.673Z,95611.00
2019-04-25T03:07:16.813Z,95638.77
2019-04-25T03:09:45.154Z,95647.53
2019-04-25T03:12:26.653Z,95619.51
2019-04-25T03:14:44.757Z,95618.67
2019-04-25T03:17:14.282Z,95609.59
2019-04-25T03:20:06.672Z,95610.72
2019-04-25T03:22:34.467Z,95602.28
2019-04-25T03:25:06.853Z,95613.17
2019-04-25T03:27:34.050Z,95606.70
2019-04-25T03:30:04.448Z,95612.63
2019-04-25T03:32:35.509Z,95578.87
2019-04-25T03:35:04.513Z,95586.28
2019-04-25T03:37:35.183Z,95583.64
2019-04-25T03:40:06.517Z,95583.34
2019-04-25T03:42:35.217Z,95591.72
2019-04-25T03:45:05.053Z,95585.73
2019-04-25T03:47:34.580Z,95583.89
2019-04-25T03:50:05.866Z,95579.77
2019-04-25T03:52:34.947Z,95561.56
2019-04-25T03:55:05.136Z,95566.95
2019-04-25T03:57:34.027Z,95564.84
2019-04-25T04:00:05.363Z,95584.23
2019-04-25T04:02:34.413Z,95571.44
2019-04-25T04:05:05.623Z,95583.91
2019-04-25T04:07:33.697Z,95578.73
2019-04-25T04:10:04.538Z,95558.28
2019-04-25T04:12:33.920Z,95554.00
2019-04-25T04:15:04.775Z,95553.47
2019-04-25T04:17:44.098Z,95557.50
2019-04-25T04:20:15.898Z,95565.45
2019-04-25T04:22:46.114Z,95522.23
2019-04-25T04:25:16.228Z,95570.95
2019-04-25T04:27:44.741Z,95550.13
2019-04-25T04:30:15.357Z,95555.98
2019-04-25T04:32:44.183Z,95560.62
2019-04-25T04:35:14.471Z,95561.17
2019-04-25T04:37:43.194Z,95576.16
2019-04-25T04:40:11.900Z,95548.62
2019-04-25T04:42:40.415Z,95560.27
2019-04-25T04:45:10.141Z,95571.77
2019-04-25T04:47:38.679Z,95570.54
2019-04-25T04:50:08.945Z,95556.92
2019-04-25T04:52:37.491Z,95561.75
2019-04-25T04:55:09.772Z,95585.48
2019-04-25T04:57:37.067Z,95569.05
2019-04-25T05:00:07.497Z,95589.00
2019-04-25T05:02:37.783Z,95589.50
2019-04-25T05:05:24.790Z,95601.27
2019-04-25T05:07:54.978Z,95581.65
2019-04-25T05:10:24.561Z,95590.31
2019-04-25T05:12:53.374Z,95613.53
2019-04-25T05:15:22.998Z,95608.86
2019-04-25T05:17:52.069Z,95602.30
2019-04-25T05:20:20.722Z,95620.89
2019-04-25T05:22:49.217Z,95622.59
2019-04-25T05:25:19.048Z,95617.16
2019-04-25T05:28:00.121Z,95610.33
2019-04-25T05:30:21.214Z,95616.06
2019-04-25T05:32:49.825Z,95639.33
2019-04-25T05:35:18.434Z,95627.94
2019-04-25T05:37:46.958Z,95633.33
2019-04-25T05:40:16.248Z,95633.53
2019-04-25T05:42:59.380Z,95646.84
2019-04-25T05:45:29.670Z,95635.44
2019-04-25T05:47:58.226Z,95649.56
2019-04-25T05:50:26.739Z,95636.16
2019-04-25T05:52:55.295Z,95660.39
2019-04-25T05:55:25.158Z,95647.38
2019-04-25T05:58:06.496Z,95650.59
2019-04-25T06:00:35.011Z,95669.38
2019-04-25T06:03:03.863Z,95683.61
2019-04-25T06:05:33.534Z,95656.10
2019-04-25T06:08:04.106Z,95683.62
2019-04-25T06:10:50.339Z,95684.16
2019-04-25T06:13:35.436Z,95668.67
2019-04-25T06:16:05.751Z,95686.70
2019-04-25T06:18:51.052Z,95697.34
2019-04-25T06:21:20.027Z,95673.95
2019-04-25T06:23:50.244Z,95713.17
2019-04-25T06:26:32.751Z,95716.98
2019-04-25T06:28:57.067Z,95706.04
2019-04-25T06:31:19.880Z,95717.48
2019-04-25T06:33:48.528Z,95696.02
2019-04-25T06:36:17.164Z,95697.41
2019-04-25T06:38:45.650Z,95712.39
2019-04-25T06:41:14.165Z,95726.23
2019-04-25T06:43:44.415Z,95735.50
2019-04-25T06:46:24.811Z,95715.66
2019-04-25T06:48:58.304Z,95710.77
2019-04-25T06:51:46.072Z,95710.77
2019-04-25T06:54:14.728Z,95712.66
2019-04-25T06:56:43.508Z,95724.92
2019-04-25T06:59:13.646Z,95735.53
2019-04-25T07:01:43.907Z,95710.99
2019-04-25T07:04:13.939Z,95744.76
2019-04-25T07:06:43.551Z,95744.52
2019-04-25T07:09:14.597Z,95758.95
2019-04-25T07:11:44.055Z,95752.11
2019-04-25T07:14:14.230Z,95756.73
2019-04-25T07:16:43.390Z,95754.87
2019-04-25T07:19:12.154Z,95770.94
2019-04-25T07:21:40.633Z,95763.28
2019-04-25T07:24:09.668Z,95780.98
2019-04-25T07:26:45.924Z,95766.84
2019-04-25T07:29:19.201Z,95769.81
2019-04-25T07:31:53.971Z,95736.59
2019-04-25T07:34:25.271Z,95765.52
2019-04-25T07:36:54.494Z,95780.22
2019-04-25T07:39:23.643Z,95739.89
2019-04-25T07:41:54.002Z,95742.89
2019-04-25T07:44:35.348Z,95783.42
2019-04-25T07:46:54.240Z,95728.14
2019-04-25T07:49:23.447Z,95741.80
2019-04-25T07:51:53.686Z,95725.66
2019-04-25T07:54:22.241Z,95760.78
2019-04-25T07:56:50.806Z,95747.98
2019-04-25T07:59:19.344Z,95756.70
2019-04-25T08:01:47.843Z,95737.59
2019-04-25T08:04:16.352Z,95748.18
2019-04-25T08:06:44.855Z,95779.78
2019-04-25T08:09:15.430Z,95764.52
2019-04-25T08:11:44.145Z,95745.99
2019-04-25T08:14:17.117Z,95782.77
2019-04-25T08:16:53.840Z,95766.92
2019-04-25T08:19:24.842Z,95760.66
2019-04-25T08:21:54.967Z,95738.86
2019-04-25T08:24:24.531Z,95780.45
2019-04-25T08:26:53.481Z,95778.75
2019-04-25T08:29:25.229Z,95764.32
2019-04-25T08:31:53.655Z,95757.84
2019-04-25T08:34:24.224Z,95769.92
2019-04-25T08:36:54.327Z,95795.05
2019-04-25T08:39:24.081Z,95780.60
2019-04-25T08:41:53.966Z,95795.58
2019-04-25T08:44:24.114Z,95772.69
2019-04-25T08:46:53.570Z,95796.09
2019-04-25T08:49:24.048Z,95779.16
2019-04-25T08:51:55.811Z,95775.90
2019-04-25T08:54:29.049Z,95798.20
2019-04-25T08:56:59.293Z,95749.67
2019-04-25T08:59:52.264Z,95758.94
2019-04-25T09:02:34.938Z,95762.69
2019-04-25T09:05:21.918Z,95691.41
2019-04-25T09:07:50.531Z,95753.00
2019-04-25T09:10:19.099Z,95747.54
2019-04-25T09:12:47.592Z,95743.97
2019-04-25T09:15:16.292Z,95744.92
2019-04-25T09:17:47.051Z,95745.99
2019-04-25T09:20:15.637Z,95737.17
2019-04-25T09:22:44.631Z,95748.30
2019-04-25T09:25:14.535Z,95737.91
2019-04-25T09:27:43.796Z,95723.94
2019-04-25T09:30:14.357Z,95738.88
2019-04-25T09:32:44.614Z,95743.42
2019-04-25T09:35:14.187Z,95744.75
2019-04-25T09:37:44.818Z,95757.80
2019-04-25T09:40:14.428Z,95749.29
2019-04-25T09:42:44.774Z,95757.48
2019-04-25T09:45:33.342Z,95777.87
2019-04-25T09:48:09.468Z,95762.88
2019-04-25T09:50:44.218Z,95753.45
2019-04-25T09:53:21.841Z,95738.62
2019-04-25T09:56:01.647Z,95739.03
2019-04-25T09:58:34.455Z,95756.80
2019-04-25T10:01:07.323Z,95763.26
2019-04-25T10:03:36.631Z,95742.38
2019-04-25T10:06:05.744Z,95736.99
2019-04-25T10:08:34.391Z,95713.02
2019-04-25T10:11:04.074Z,95738.86
2019-04-25T10:13:33.705Z,95741.33
2019-04-25T10:16:04.884Z,95780.16
2019-04-25T10:18:34.147Z,95741.62
2019-04-25T10:21:04.759Z,95741.27
2019-04-25T10:23:34.286Z,95732.34
2019-04-25T10:26:03.833Z,95737.72
2019-04-25T10:28:33.598Z,95734.08
2019-04-25T10:31:03.598Z,95748.02
2019-04-25T10:33:32.366Z,95728.38
2019-04-25T10:36:01.320Z,95737.23
2019-04-25T10:38:30.280Z,95723.87
2019-04-25T10:40:58.982Z,95728.50
2019-04-25T10:43:27.550Z,95727.02
2019-04-25T10:45:56.111Z,95734.41
2019-04-25T10:48:24.630Z,95724.37
2019-04-25T10:50:53.857Z,95726.89
2019-04-25T10:53:25.353Z,95725.37
2019-04-25T10:55:53.790Z,95706.53
2019-04-25T10:58:22.436Z,95712.55
2019-04-25T11:00:53.063Z,95729.10
2019-04-25T11:03:33.320Z,95724.80
2019-04-25T11:06:03.966Z,95716.63
2019-04-25T11:08:34.006Z,95722.22
2019-04-25T11:11:03.800Z,95740.01
2019-04-25T11:13:33.958Z,95711.21
2019-04-25T11:16:03.542Z,95714.95
2019-04-25T11:18:33.884Z,95702.39
2019-04-25T11:21:04.285Z,95714.34
2019-04-25T11:23:32.943Z,95691.45
2019-04-25T11:26:01.607Z,95712.97
2019-04-25T11:28:30.097Z,95725.55
2019-04-25T11:30:58.692Z,95692.13
2019-04-25T11:33:27.746Z,95693.75
2019-04-25T11:35:56.579Z,95673.92
2019-04-25T11:38:43.503Z,95694.87
2019-04-25T11:41:14.198Z,95701.31
2019-04-25T11:43:45.371Z,95673.73
2019-04-25T11:46:14.159Z,95685.68
2019-04-25T11:48:44.197Z,95672.07
2019-04-25T11:51:13.854Z,95688.03
2019-04-25T11:53:44.074Z,95677.41
2019-04-25T11:56:13.757Z,95665.03
2019-04-25T11:58:45.099Z,95666.39
2019-04-25T12:01:14.221Z,95685.05
2019-04-25T12:03:45.099Z,95672.20
2019-04-25T12:06:14.158Z,95669.86
2019-04-25T12:08:44.089Z,95663.79
2019-04-25T12:11:13.902Z,95672.53
2019-04-25T12:13:45.681Z,95680.55
2019-04-25T12:16:14.439Z,95657.36
2019-04-25T12:18:44.772Z,95652.69
2019-04-25T12:21:13.648Z,95644.73
2019-04-25T12:23:45.039Z,95680.03
2019-04-25T12:26:14.231Z,95668.73
2019-04-25T12:28:42.836Z,95653.99
2019-04-25T12:31:13.120Z,95657.08
2019-04-25T12:33:43.365Z,95650.08
2019-04-25T12:36:13.554Z,95675.92
2019-04-25T12:38:43.865Z,95655.56
2019-04-25T12:41:12.531Z,95655.52
2019-04-25T12:43:43.866Z,95635.24
2019-04-25T12:46:17.043Z,95656.64
2019-04-25T12:48:46.036Z,95644.17
2019-04-25T12:51:14.962Z,95615.85
2019-04-25T12:53:43.856Z,95631.48
2019-04-25T12:56:12.479Z,95622.40
2019-04-25T12:58:41.270Z,95634.02
2019-04-25T13:01:10.615Z,95625.76
2019-04-25T13:03:39.174Z,95603.87
2019-04-25T13:06:07.770Z,95622.70
2019-04-25T13:08:36.290Z,95629.89
2019-04-25T13:11:08.545Z,95634.50
2019-04-25T13:13:35.317Z,95620.02
2019-04-25T13:16:04.402Z,95639.62
2019-04-25T13:18:32.940Z,95622.11
2019-04-25T13:21:01.478Z,95635.04
2019-04-25T13:23:31.960Z,95604.05
2019-04-25T13:26:01.573Z,95614.92
2019-04-25T13:28:40.635Z,95632.61
2019-04-25T13:31:12.950Z,95639.48
2019-04-25T13:33:43.324Z,95624.20
2019-04-25T13:36:13.472Z,95616.21
2019-04-25T13:38:41.944Z,95615.20
2019-04-25T13:41:10.535Z,95641.75
2019-04-25T13:43:39.238Z,95626.67
2019-04-25T13:46:07.887Z,95625.32
2019-04-25T13:48:36.525Z,95604.89
2019-04-25T13:51:05.279Z,95628.11
2019-04-25T13:53:33.783Z,95633.03
2019-04-25T13:56:04.613Z,95602.38
2019-04-25T13:58:34.192Z,95627.42
2019-04-25T14:01:12.432Z,95622.01
2019-04-25T14:03:34.042Z,95622.12
2019-04-25T14:06:03.916Z,95614.33
2019-04-25T14:08:33.518Z,95584.27
2019-04-25T14:11:04.928Z,95577.86
2019-04-25T14:13:32.429Z,95574.54
2019-04-25T14:16:17.519Z,95559.70
2019-04-25T14:19:03.614Z,95591.06
2019-04-25T14:21:33.518Z,95575.77
2019-04-25T14:24:02.056Z,95560.28
2019-04-25T14:26:31.292Z,95554.42
2019-04-25T14:28:59.905Z,95566.75
2019-04-25T14:31:40.606Z,95559.41
2019-04-25T14:33:58.593Z,95566.95
2019-04-25T14:36:28.580Z,95564.22
2019-04-25T14:38:57.167Z,95566.95
2019-04-25T14:41:26.081Z,95563.47
2019-04-25T14:43:54.814Z,95555.30
2019-04-25T14:46:23.312Z,95545.97
2019-04-25T14:48:51.822Z,95530.85
2019-04-25T14:51:20.393Z,95550.72
2019-04-25T14:53:48.924Z,95553.08
2019-04-25T14:56:28.060Z,95559.75
2019-04-25T14:58:56.544Z,95574.08
2019-04-25T15:01:26.065Z,95575.49
2019-04-25T15:03:54.566Z,95564.84
2019-04-25T15:06:23.412Z,95572.59
2019-04-25T15:08:52.900Z,95589.28
2019-04-25T15:11:23.154Z,95599.68
2019-04-25T15:13:51.731Z,95593.64
2019-04-25T15:16:20.316Z,95582.72
2019-04-25T15:18:48.871Z,95580.84
2019-04-25T15:21:18.806Z,95605.02
2019-04-25T15:23:59.346Z,95574.08
2019-04-25T15:26:17.627Z,95597.34
2019-04-25T15:28:46.083Z,95592.77
2019-04-25T15:31:14.712Z,95602.27
2019-04-25T15:33:43.197Z,95597.34
2019-04-25T15:36:28.591Z,95585.44
2019-04-25T15:39:04.416Z,95601.27
2019-04-25T15:41:34.894Z,95580.49
2019-04-25T15:44:20.956Z,95591.55
2019-04-25T15:46:53.862Z,95592.58
2019-04-25T15:49:22.364Z,95581.53
2019-04-25T15:51:50.836Z,95573.14
2019-04-25T15:54:19.494Z,95571.98
2019-04-25T15:56:48.057Z,95582.01
2019-04-25T15:59:16.643Z,95567.30
2019-04-25T16:01:45.239Z,95556.34
2019-04-25T16:04:13.789Z,95557.50
2019-04-25T16:06:42.259Z,95566.39
2019-04-25T16:09:10.748Z,95544.29
2019-04-25T16:11:39.262Z,95554.16
2019-04-25T16:14:07.859Z,95562.95
2019-04-25T16:16:36.352Z,95565.91
2019-04-25T16:19:05.094Z,95558.52
2019-04-25T16:21:33.773Z,95550.24
2019-04-25T16:24:02.401Z,95548.62
2019-04-25T16:26:31.460Z,95549.57
2019-04-25T16:29:00.016Z,95549.81
2019-04-25T16:31:29.194Z,95541.52
2019-04-25T16:33:57.820Z,95535.55
2019-04-25T16:36:26.352Z,95545.98
2019-04-25T16:38:54.849Z,95528.77
2019-04-25T16:41:23.663Z,95534.27
2019-04-25T16:43:53.808Z,95534.89
2019-04-25T16:46:23.196Z,95532.05
2019-04-25T16:48:51.777Z,95542.66
2019-04-25T16:51:20.327Z,95531.36
2019-04-25T16:53:48.807Z,95508.73
2019-04-25T16:56:17.314Z,95513.61
2019-04-25T16:58:45.891Z,95518.83
2019-04-25T17:01:14.656Z,95503.45
2019-04-25T17:03:43.681Z,95500.48
2019-04-25T17:06:12.326Z,95488.96
2019-04-25T17:08:40.819Z,95506.13
2019-04-25T17:11:09.770Z,95510.03
2019-04-25T17:13:39.893Z,95514.91
2019-04-25T17:16:25.711Z,95512.10
2019-04-25T17:18:55.889Z,95499.75
2019-04-25T17:21:24.436Z,95505.17
2019-04-25T17:23:52.897Z,95514.83
2019-04-25T17:26:21.956Z,95491.78
2019-04-25T17:28:52.089Z,95497.24
2019-04-25T17:31:28.460Z,95506.55
2019-04-25T17:34:10.766Z,95502.13
2019-04-25T17:36:46.719Z,95511.12
2019-04-25T17:39:35.914Z,95506.38
2019-04-25T17:42:04.546Z,95530.78
2019-04-25T17:44:32.991Z,95529.36
2019-04-25T17:47:06.412Z,95513.38
2019-04-25T17:49:32.817Z,95494.34
2019-04-25T17:52:01.459Z,95509.70
2019-04-25T17:54:30.025Z,95515.64
2019-04-25T17:56:58.516Z,95495.22
2019-04-25T17:59:27.177Z,95520.33
2019-04-25T18:01:55.738Z,95514.38
2019-04-25T18:04:24.346Z,95499.27
2019-04-25T18:06:54.420Z,95517.95
2019-04-25T18:09:23.371Z,95504.03
2019-04-25T18:11:51.964Z,95503.41
2019-04-25T18:14:20.504Z,95485.23
2019-04-25T18:16:49.851Z,95492.27
2019-04-25T18:19:32.268Z,95501.86
2019-04-25T18:22:02.677Z,95477.04
2019-04-25T18:24:48.839Z,95483.31
2019-04-25T18:27:19.043Z,95505.04
2019-04-25T18:29:47.682Z,95481.53
2019-04-25T18:32:16.149Z,95483.12
2019-04-25T18:34:49.270Z,95496.77
2019-04-25T18:37:37.152Z,95491.39
2019-04-25T18:40:20.592Z,95484.00
2019-04-25T18:42:59.689Z,95506.14
2019-04-25T18:45:29.927Z,95490.17
2019-04-25T18:47:58.469Z,95488.09
2019-04-25T18:50:28.680Z,95491.38
2019-04-25T18:53:14.655Z,95479.25
2019-04-25T18:55:50.312Z,95486.08
2019-04-25T18:58:36.195Z,95485.73
2019-04-25T19:01:22.631Z,95477.58
2019-04-25T19:03:58.758Z,95482.30
2019-04-25T19:06:28.007Z,95477.04
2019-04-25T19:08:56.557Z,95492.91
2019-04-25T19:11:25.119Z,95490.72
2019-04-25T19:13:53.680Z,95486.69
2019-04-25T19:16:22.221Z,95472.84
2019-04-25T19:18:51.611Z,95470.72
2019-04-25T19:21:20.278Z,95476.35
2019-04-25T19:23:48.808Z,95482.39
2019-04-25T19:26:17.419Z,95467.94
2019-04-25T19:28:46.897Z,95476.73
2019-04-25T19:31:15.372Z,95465.92
2019-04-25T19:33:43.932Z,95480.27
2019-04-25T19:36:12.469Z,95461.61
2019-04-25T19:38:41.912Z,95459.42
2019-04-25T19:41:14.932Z,95455.04
2019-04-25T19:43:56.571Z,95466.80
2019-04-25T19:46:38.439Z,95450.98
2019-04-25T19:49:07.398Z,95457.13
2019-04-25T19:51:36.213Z,95457.06
2019-04-25T19:54:06.176Z,95463.89
2019-04-25T19:56:35.217Z,95456.45
2019-04-25T19:59:03.973Z,95451.34
2019-04-25T20:01:32.598Z,95464.16
2019-04-25T20:04:11.887Z,95445.89
2019-04-25T20:06:57.746Z,95437.84
2019-04-25T20:09:39.407Z,95442.79
2019-04-25T20:12:07.916Z,95444.69
2019-04-25T20:14:36.398Z,95461.84
2019-04-25T20:17:04.958Z,95465.52
2019-04-25T20:19:33.505Z,95444.53
2019-04-25T20:22:01.957Z,95463.78
2019-04-25T20:24:30.407Z,95441.27
2019-04-25T20:26:58.923Z,95422.39
2019-04-25T20:29:27.554Z,95442.27
2019-04-25T20:31:56.032Z,95434.92
2019-04-25T20:34:24.526Z,95436.98
2019-04-25T20:36:53.693Z,95460.23
2019-04-25T20:39:22.151Z,95443.53
2019-04-25T20:41:50.656Z,95463.13
2019-04-25T20:44:19.168Z,95459.83
2019-04-25T20:46:48.478Z,95445.78
2019-04-25T20:49:17.011Z,95452.98
2019-04-25T20:51:47.029Z,95420.67
2019-04-25T20:54:15.604Z,95461.57
2019-04-25T20:56:44.187Z,95474.44
2019-04-25T20:59:12.644Z,95473.94
2019-04-25T21:01:41.233Z,95475.13
2019-04-25T21:04:13.344Z,95470.08
2019-04-25T21:06:41.958Z,95449.41
2019-04-25T21:09:10.527Z,95449.96
2019-04-25T21:11:39.045Z,95461.17
2019-04-25T21:14:09.207Z,95468.66
2019-04-25T21:16:45.257Z,95454.43
2019-04-25T21:19:23.990Z,95471.05
2019-04-25T21:21:52.546Z,95448.63
2019-04-25T21:24:21.009Z,95420.56
2019-04-25T21:26:50.227Z,95436.82
2019-04-25T21:29:19.868Z,95455.33
2019-04-25T21:31:48.357Z,95426.45
2019-04-25T21:34:25.799Z,95419.83
2019-04-25T21:36:47.158Z,95434.20
2019-04-25T21:39:29.408Z,95417.00
2019-04-25T21:41:59.832Z,95423.62
2019-04-25T21:44:28.726Z,95407.11
2019-04-25T21:46:57.198Z,95395.77
2019-04-25T21:49:26.769Z,95404.19
2019-04-25T21:51:55.265Z,95412.95
2019-04-25T21:54:23.743Z,95430.70
2019-04-25T21:56:53.291Z,95391.06
2019-04-25T21:59:22.720Z,95386.59
2019-04-25T22:01:51.351Z,95405.37
2019-04-25T22:04:19.823Z,95411.42
2019-04-25T22:06:48.682Z,95402.26
2019-04-25T22:09:21.572Z,95389.17
2019-04-25T22:11:50.246Z,95384.22
2019-04-25T22:14:19.077Z,95370.88
2019-04-25T22:16:47.879Z,95346.18
2019-04-25T22:19:16.858Z,95363.47
2019-04-25T22:21:45.656Z,95367.78
2019-04-25T22:24:14.822Z,95357.11
2019-04-25T22:26:45.003Z,95369.27
2019-04-25T22:29:13.551Z,95351.57
2019-04-25T22:31:59.611Z,95364.18
2019-04-25T22:34:32.928Z,95368.25
2019-04-25T22:37:02.088Z,95384.48
2019-04-25T22:39:30.636Z,95396.94
2019-04-25T22:41:59.750Z,95395.03
2019-04-25T22:44:29.713Z,95402.10
2019-04-25T22:46:58.666Z,95407.94
2019-04-25T22:49:27.204Z,95432.75
2019-04-25T22:51:55.688Z,95421.61
2019-04-25T22:54:25.149Z,95442.83
2019-04-25T22:56:53.650Z,95449.88
2019-04-25T22:59:22.399Z,95489.41
2019-04-25T23:02:09.589Z,95532.73
2019-04-25T23:05:05.500Z,95527.05
2019-04-25T23:07:28.058Z,95537.20
2019-04-25T23:09:56.721Z,95537.69
2019-04-25T23:12:25.487Z,95546.39
2019-04-25T23:14:53.964Z,95566.16
2019-04-25T23:17:22.442Z,95564.12
2019-04-25T23:19:51.109Z,95589.15
2019-04-25T23:22:19.597Z,95600.63
2019-04-25T23:25:01.606Z,95606.23
2019-04-25T23:27:31.799Z,95602.39
2019-04-25T23:30:00.267Z,95626.95
2019-04-25T23:32:29.060Z,95633.07
2019-04-25T23:34:57.566Z,95628.06
2019-04-25T23:37:26.133Z,95624.97
2019-04-25T23:39:54.670Z,95625.25
2019-04-25T23:42:23.159Z,95649.49
2019-04-25T23:44:51.893Z,95656.11
2019-04-25T23:47:20.392Z,95654.63
2019-04-25T23:49:48.865Z,95675.69
2019-04-25T23:52:17.692Z,95674.89
2019-04-25T23:54:46.263Z,95682.72
2019-04-25T23:57:15.490Z,95681.13
2019-04-25T23:59:44.225Z,95678.98
